TPC399 KUTA-KHKA
Flight info
| Callsign | TPC399 |
|---|---|
| Flight time | N/A |
| Altitude | 4500 |
| Route | DCT |
| Aircraft | BE36/L-BDFGLORY/S |
Departure
| Time | 2026-04-19 00:26 |
|---|---|
| Airport | Tunica Municipal Airport (KUTA) |
Arrival
| Time | N/A |
|---|---|
| Airport | Blytheville Municipal Airport (KHKA) |
| Time | Latitude | Longitude | Altitude | Speed | Heading |
|---|---|---|---|---|---|
| 2026-04-19 00:10 | 34.68590 | -90.35068 | 217 ft | 0 kts | 258° |
| 2026-04-19 00:14 | 34.68589 | -90.35073 | 223 ft | 5 kts | 257° |
| 2026-04-19 00:14 | 34.68574 | -90.35063 | 208 ft | 0 kts | 99° |
| 2026-04-19 00:17 | 34.68570 | -90.35035 | 201 ft | 9 kts | 98° |
| 2026-04-19 00:17 | 34.68557 | -90.35001 | 204 ft | 11 kts | 161° |
| 2026-04-19 00:17 | 34.68481 | -90.34943 | 201 ft | 15 kts | 90° |
| 2026-04-19 00:18 | 34.68405 | -90.34887 | 205 ft | 15 kts | 167° |
| 2026-04-19 00:18 | 34.68300 | -90.34860 | 198 ft | 14 kts | 166° |
| 2026-04-19 00:18 | 34.68180 | -90.34824 | 198 ft | 20 kts | 168° |
| 2026-04-19 00:18 | 34.68047 | -90.34787 | 199 ft | 19 kts | 167° |
| 2026-04-19 00:19 | 34.67919 | -90.34751 | 199 ft | 19 kts | 166° |
| 2026-04-19 00:19 | 34.67795 | -90.34715 | 199 ft | 18 kts | 168° |
| 2026-04-19 00:19 | 34.67662 | -90.34680 | 199 ft | 21 kts | 168° |
| 2026-04-19 00:19 | 34.67523 | -90.34639 | 201 ft | 20 kts | 168° |
| 2026-04-19 00:20 | 34.67421 | -90.34612 | 207 ft | 6 kts | 167° |
| 2026-04-19 00:20 | 34.67418 | -90.34611 | 206 ft | 0 kts | 168° |
| 2026-04-19 00:20 | 34.67410 | -90.34609 | 198 ft | 6 kts | 167° |
| 2026-04-19 00:20 | 34.67394 | -90.34605 | 198 ft | 0 kts | 167° |
| 2026-04-19 00:21 | 34.67390 | -90.34604 | 198 ft | 4 kts | 167° |
| 2026-04-19 00:21 | 34.67362 | -90.34588 | 204 ft | 0 kts | 126° |
| 2026-04-19 00:22 | 34.67356 | -90.34569 | 201 ft | 1 kts | 95° |
| 2026-04-19 00:22 | 34.67358 | -90.34554 | 211 ft | 0 kts | 79° |
| 2026-04-19 00:24 | 34.67359 | -90.34551 | 208 ft | 0 kts | 79° |
| 2026-04-19 00:25 | 34.67370 | -90.34494 | 202 ft | 13 kts | 64° |
| 2026-04-19 00:25 | 34.67523 | -90.34504 | 199 ft | 53 kts | 346° |
| 2026-04-19 00:25 | 34.67854 | -90.34602 | 228 ft | 89 kts | 353° |
| 2026-04-19 00:25 | 34.68792 | -90.34867 | 573 ft | 114 kts | 350° |
| 2026-04-19 00:26 | 34.69547 | -90.35067 | 1003 ft | 106 kts | 351° |
| 2026-04-19 00:26 | 34.70271 | -90.35291 | 1327 ft | 107 kts | 352° |
| 2026-04-19 00:26 | 34.71025 | -90.35343 | 1601 ft | 111 kts | 4° |
| 2026-04-19 00:26 | 34.71527 | -90.35286 | 1799 ft | 106 kts | 7° |
| 2026-04-19 00:27 | 34.72231 | -90.35183 | 2031 ft | 100 kts | 7° |
| 2026-04-19 00:27 | 34.72951 | -90.35042 | 2058 ft | 110 kts | 9° |
| 2026-04-19 00:27 | 34.73706 | -90.34845 | 2126 ft | 113 kts | 13° |
| 2026-04-19 00:27 | 34.74514 | -90.34583 | 1910 ft | 132 kts | 14° |
| 2026-04-19 00:28 | 34.75424 | -90.34274 | 1699 ft | 140 kts | 15° |
| 2026-04-19 00:28 | 34.76378 | -90.33956 | 1553 ft | 143 kts | 15° |
| 2026-04-19 00:28 | 34.77325 | -90.33650 | 1513 ft | 139 kts | 14° |